Flight Track Log - Related Links

Times and Time Zones

All times are in EDT time to prevent confusion due to time zone crossing. See the SCX386 flight status page for this flight to view local times or setup timezone preferences in your user account.

Time Position Orientation Groundspeed Altitude Reporting Facility
EDT Latitude Longitude Course Direction KTS MPH feet Rate Location/Type
09:19PM 27.3078 -81.8821 353° North  Level FlightAware Approximate
09:19PM 26.8411 -81.7986 349° North 367 422 13,800  Level FlightAware ADS-B
09:19PM 26.8731 -81.8104 338° Northwest 371 427 14,700 2,700 Climbing FlightAware ADS-B
09:20PM 26.9354 -81.8384 339° North 382 440 16,500 1,590 Climbing FlightAware ADS-B
09:20PM 27.0068 -81.8755 332° Northwest 386 444 16,900 289 Climbing FlightAware ADS-B
09:21PM 27.0732 -81.9146 332° Northwest 383 441 16,900 366 Level FlightAware ADS-B
09:22PM 27.1345 -81.9505 332° Northwest 386 444 17,400 947 Climbing FlightAware ADS-B
09:22PM 27.1822 -81.9807 330° Northwest 392 451 18,100 1,120 Climbing FlightAware ADS-B
09:23PM 27.2500 -82.0236 330° Northwest 396 456 18,800 1,000 Climbing FlightAware ADS-B
09:24PM 27.3278 -82.0729 331° Northwest 406 467 19,500 968 Climbing FlightAware ADS-B
09:25PM 27.4591 -82.1535 331° Northwest 412 474 20,800 1,119 Climbing FlightAware ADS-B
09:26PM 27.5254 -82.1941 331° Northwest 418 481 21,700 1,929 Climbing FlightAware ADS-B
09:27PM 27.7113 -82.2813 341° North 448 516 25,300 2,014 Climbing FlightAware ADS-B
09:28PM 27.8016 -82.3166 341° North 459 528 26,600 1,835 Climbing FlightAware ADS-B
09:29PM 27.8812 -82.3479 341° North 465 535 27,900 1,875 Climbing FlightAware ADS-B
09:29PM 27.9633 -82.3815 337° Northwest 470 541 29,100 1,745 Climbing FlightAware ADS-B
09:31PM 28.1621 -82.4929 334° Northwest 473 544 32,000 1,755 Climbing FlightAware ADS-B
09:31PM 28.1715 -82.4982 334° Northwest 472 543 32,200 1,733 Climbing FlightAware ADS-B (KEYW)
09:32PM 28.2507 -82.5426 334° Northwest 473 544 33,300 1,846 Climbing FlightAware ADS-B
09:32PM 28.3241 -82.5839 334° Northwest 467 537 34,600 1,744 Climbing FlightAware ADS-B
09:33PM 28.4171 -82.6361 334° Northwest 463 533 35,800 1,540 Climbing FlightAware ADS-B
09:34PM 28.5436 -82.7073 333° Northwest 463 533 37,500 1,237 Climbing FlightAware ADS-B
09:35PM 28.6611 -82.7883 333° Northwest 469 540 38,500 952 Climbing Jacksonville Center
09:36PM 28.7592 -82.8428 334° Northwest 447 514 39,500 700 Climbing Jacksonville Center
09:37PM 28.8742 -82.9092 333° Northwest 447 514 39,900 250 Climbing Jacksonville Center
09:38PM 28.9867 -82.9756 333° Northwest 447 514 40,000 50 Climbing Jacksonville Center
09:39PM 29.1014 -83.0400 334° Northwest 447 514 40,000  Level Jacksonville Center
09:40PM 29.2142 -83.1067 333° Northwest 447 514 40,000 -50 Level Jacksonville Center
09:41PM 29.3267 -83.1714 333° Northwest 447 514 39,900 -50 Descending Jacksonville Center
09:42PM 29.4414 -83.2383 333° Northwest 447 514 39,900  Level Jacksonville Center
09:43PM 29.5539 -83.3081 332° Northwest 452 520 39,900 14 Level Jacksonville Center
09:49PM 30.2780 -83.6326 340° North 452 520 40,000 15 Climbing FlightAware ADS-B (KONZ)
09:50PM 30.3494 -83.6626 340° North 451 519 40,000  Level FlightAware ADS-B (KONZ)
09:51PM 30.4284 -83.6956 340° North 452 520 40,000  Level FlightAware ADS-B (KONZ)
09:51PM 30.5258 -83.7363 340° North 451 519 40,000  Level FlightAware ADS-B (KONZ)
09:52PM 30.5815 -83.7599 340° North 451 519 40,000  Level FlightAware ADS-B (KONZ)
09:53PM 30.6558 -83.7912 340° North 451 519 40,000  Level FlightAware ADS-B (KONZ)
09:53PM 30.7188 -83.8255 331° Northwest 448 516 40,000  Level FlightAware ADS-B (KONZ)
09:54PM 30.7907 -83.8703 332° Northwest 445 512 40,000  Level FlightAware ADS-B (KONZ)
09:54PM 30.8475 -83.9052 332° Northwest 444 511 40,000  Level FlightAware ADS-B (KONZ)
09:55PM 30.9080 -83.9419 332° Northwest 443 510 40,000  Level FlightAware ADS-B (KONZ)
09:56PM 30.9979 -83.9970 332° Northwest 440 506 40,000  Level FlightAware ADS-B (KONZ)
09:56PM 31.0506 -84.0542 332° Northwest 442 509 40,000  Level Jacksonville Center
09:57PM 31.1583 -84.1186 333° Northwest 436 502 40,000  Level Jacksonville Center
10:00PM 31.4208 -84.2822 332° Northwest 442 509 40,000  Level Atlanta Center
10:01PM 31.5269 -84.3508 331° Northwest 442 509 40,000  Level Atlanta Center
10:02PM 31.6356 -84.4144 334° Northwest 437 503 40,000  Level Atlanta Center
10:03PM 31.7394 -84.4808 331° Northwest 437 503 40,000  Level Atlanta Center
10:04PM 31.8458 -84.5475 332° Northwest 432 497 40,000  Level Atlanta Center
10:05PM 31.9394 -84.6042 333° Northwest 432 497 40,000  Level Atlanta Center
10:06PM 32.0456 -84.6711 332° Northwest 432 497 40,000  Level Atlanta Center
10:07PM 32.1536 -84.7406 331° Northwest 432 497 40,000  Level Atlanta Center
10:08PM 32.2578 -84.8053 332° Northwest 432 497 40,000  Level Atlanta Center
10:09PM 32.3597 -84.8650 334° Northwest 417 480 40,000  Level Atlanta Center
10:10PM 32.4719 -84.9325 333° Northwest 423 487 40,000  Level Atlanta Center
10:11PM 32.5756 -85.0003 331° Northwest 429 494 40,000  Level Atlanta Center
10:12PM 32.6817 -85.0681 332° Northwest 429 494 40,000  Level Atlanta Center
10:13PM 32.7958 -85.1483 329° Northwest 424 488 40,000  Level Atlanta Center
10:14PM 32.8892 -85.1989 336° Northwest 428 493 40,000  Level Atlanta Center
10:15PM 32.9928 -85.2647 332° Northwest 428 493 40,000  Level Atlanta Center
10:16PM 33.1047 -85.3456 329° Northwest 428 493 40,000  Level Atlanta Center
10:17PM 33.2064 -85.4142 331° Northwest 423 487 40,000  Level Atlanta Center
10:22PM 33.7321 -85.7489 331° Northwest 413 475 40,000  Level FlightAware ADS-B (KMDQ)
10:23PM 33.7980 -85.7926 331° Northwest 415 478 40,000  Level FlightAware ADS-B (KMDQ)
10:23PM 33.8679 -85.8389 331° Northwest 413 475 40,000  Level FlightAware ADS-B (KMDQ)
10:24PM 33.9343 -85.8832 331° Northwest 412 474 40,000  Level FlightAware ADS-B (KMDQ)
10:25PM 33.9860 -85.9176 331° Northwest 410 472 40,000  Level FlightAware ADS-B (KMDQ)
10:25PM 34.0691 -85.9730 331° Northwest 409 471 40,000  Level FlightAware ADS-B (KMDQ)
10:26PM 34.1343 -86.0161 331° Northwest 408 470 40,000  Level FlightAware ADS-B (KMDQ)
10:27PM 34.1831 -86.0487 331° Northwest 407 468 40,000  Level FlightAware ADS-B (KMDQ)
10:27PM 34.2562 -86.0982 331° Northwest 405 466 40,000  Level FlightAware ADS-B (KMDQ)
10:28PM 34.3258 -86.1448 331° Northwest 405 466 40,000  Level FlightAware ADS-B (KMDQ)
10:29PM 34.3740 -86.1769 331° Northwest 410 472 40,000  Level FlightAware ADS-B (KMDQ)
10:29PM 34.4505 -86.2283 331° Northwest 412 474 40,000  Level FlightAware ADS-B (KMDQ)
10:30PM 34.5309 -86.2820 331° Northwest 412 474 40,000  Level FlightAware ADS-B (KMDQ)
10:31PM 34.5877 -86.3203 331° Northwest 412 474 40,000  Level FlightAware ADS-B (KMDQ)
10:31PM 34.6668 -86.3735 331° Northwest 411 473 40,000  Level FlightAware ADS-B (KMDQ)
10:32PM 34.7667 -86.4409 331° Northwest 411 473 40,000  Level FlightAware ADS-B (KMDQ)
10:33PM 34.8325 -86.4853 331° Northwest 412 474 40,000  Level FlightAware ADS-B (KMDQ)
10:34PM 34.8993 -86.5302 331° Northwest 412 474 40,000  Level FlightAware ADS-B (KMDQ)
10:34PM 34.9683 -86.5767 331° Northwest 413 475 40,000  Level FlightAware ADS-B (KMDQ)
10:35PM 35.0228 -86.6136 331° Northwest 414 476 40,000  Level FlightAware ADS-B (KMDQ)
10:36PM 35.1015 -86.6672 331° Northwest 415 478 40,000  Level FlightAware ADS-B (KMDQ)
10:36PM 35.1448 -86.6965 331° Northwest 416 479 40,000  Level FlightAware ADS-B (KMDQ)
10:37PM 35.2252 -86.7511 331° Northwest 417 480 40,000  Level FlightAware ADS-B (KMDQ)
10:38PM 35.3004 -86.8023 331° Northwest 417 480 40,000  Level FlightAware ADS-B (KMDQ)
10:38PM 35.3670 -86.8475 331° Northwest 416 479 40,000 -146 Level FlightAware ADS-B (KMDQ)
10:39PM 35.4384 -86.8964 331° Northwest 418 481 39,800 -675 Descending FlightAware ADS-B (KMDQ)
10:40PM 35.4982 -86.9370 331° Northwest 414 476 39,100 -987 Descending FlightAware ADS-B (KMDQ)
10:40PM 35.5684 -86.9851 330° Northwest 412 474 38,500 -987 Descending FlightAware ADS-B (KMDQ)
10:41PM 35.6340 -87.0305 331° Northwest 407 468 37,800 -991 Descending FlightAware ADS-B (KMDQ)
10:42PM 35.7583 -87.1151 331° Northwest 405 466 36,600 -730 Descending FlightAware ADS-B (KMDQ)
10:43PM 35.8683 -87.1978 331° Northwest 410 472 36,000 -271 Descending Memphis Center
10:44PM 35.9678 -87.2675 330° Northwest 409 471 36,000  Level Memphis Center
10:45PM 36.0683 -87.3372 331° Northwest 407 468 36,000  Level Memphis Center
10:46PM 36.1694 -87.4086 330° Northwest 407 468 36,000  Level Memphis Center
10:47PM 36.2703 -87.4775 331° Northwest 407 468 36,000  Level Memphis Center
10:49PM 36.3683 -87.5478 330° Northwest 407 468 36,000  Level Memphis Center
10:50PM 36.4661 -87.6161 331° Northwest 404 465 36,000  Level Memphis Center
10:51PM 36.5636 -87.6850 330° Northwest 402 463 36,000  Level Memphis Center
10:52PM 36.6622 -87.7558 330° Northwest 402 463 36,000  Level Memphis Center
10:53PM 36.7589 -87.8244 330° Northwest 401 461 36,000  Level Memphis Center
10:54PM 36.8567 -87.8944 330° Northwest 400 460 36,000  Level Memphis Center
10:55PM 36.9556 -87.9644 331° Northwest 401 461 36,000  Level Memphis Center
10:56PM 37.0525 -88.0369 329° Northwest 401 461 36,000  Level Memphis Center
10:57PM 37.1553 -88.1108 330° Northwest 404 465 36,000  Level Memphis Center
10:58PM 37.2531 -88.1814 330° Northwest 405 466 36,000  Level Memphis Center
10:59PM 37.3517 -88.2522 330° Northwest 406 467 36,000  Level Memphis Center
11:00PM 37.4486 -88.3253 329° Northwest 406 467 36,000  Level Memphis Center
11:01PM 37.5467 -88.3950 331° Northwest 406 467 36,000  Level Memphis Center
11:02PM 37.6633 -88.4817 330° Northwest 406 467 36,000  Level Memphis Center
11:03PM 37.7611 -88.5533 330° Northwest 406 467 36,000  Level Memphis Center
11:04PM 37.8600 -88.6275 329° Northwest 407 468 36,000  Level Memphis Center
11:05PM 37.9583 -88.7003 330° Northwest 408 470 36,000  Level Memphis Center
11:06PM 38.0578 -88.7744 330° Northwest 409 471 36,000  Level Memphis Center
11:07PM 38.1942 -88.8758 330° Northwest 417 480 36,000  Level Kansas City Center
11:08PM 38.2942 -88.9500 330° Northwest 417 480 36,000  Level Kansas City Center
11:09PM 38.3931 -89.0244 329° Northwest 416 479 36,000  Level Kansas City Center
11:10PM 38.4928 -89.0981 330° Northwest 416 479 36,000  Level Kansas City Center
11:11PM 38.6100 -89.1878 329° Northwest 411 473 36,000  Level Kansas City Center
11:12PM 38.7069 -89.2611 329° Northwest 411 473 36,000  Level Kansas City Center
11:13PM 38.7906 -89.3261 329° Northwest 410 472 36,000  Level Kansas City Center
11:14PM 38.9025 -89.4114 329° Northwest 405 466 36,000  Level Kansas City Center
11:15PM 38.9989 -89.4844 330° Northwest 405 466 36,000  Level Kansas City Center
11:16PM 39.0956 -89.5581 329° Northwest 405 466 36,000  Level Kansas City Center
11:18PM 39.1836 -89.6269 329° Northwest 404 465 36,000  Level Kansas City Center
11:19PM 39.2981 -89.7161 329° Northwest 403 464 36,000  Level Kansas City Center
11:20PM 39.3942 -89.7911 329° Northwest 403 464 36,000  Level Kansas City Center
11:21PM 39.4914 -89.8661 329° Northwest 404 465 36,000  Level Kansas City Center
11:22PM 39.5881 -89.9422 329° Northwest 405 466 36,000  Level Kansas City Center
11:23PM 39.6850 -90.0175 329° Northwest 405 466 36,000  Level Kansas City Center
11:24PM 39.7772 -90.0919 328° Northwest 407 468 36,000  Level Kansas City Center
11:25PM 39.8942 -90.1872 328° Northwest 410 472 36,000  Level Kansas City Center
11:26PM 39.9917 -90.2633 329° Northwest 409 471 36,000  Level Kansas City Center
11:27PM 40.0872 -90.3422 328° Northwest 408 470 36,000  Level Kansas City Center
11:28PM 40.1833 -90.4175 329° Northwest 406 467 36,000  Level Kansas City Center
11:34PM 40.7658 -90.8562 329° Northwest 412 474 36,000  Level FlightAware ADS-B (EGPH / EDI)
11:38PM 41.1281 -91.1591 328° Northwest 396 456 36,000  Level FlightAware ADS-B
11:39PM 41.2868 -91.2928 328° Northwest 402 463 36,000  Level FlightAware ADS-B
11:40PM 41.3398 -91.3380 327° Northwest 403 464 36,000  Level FlightAware ADS-B
11:40PM 41.3903 -91.3807 328° Northwest 403 464 36,000  Level FlightAware ADS-B
11:41PM 41.4577 -91.4379 327° Northwest 403 464 36,000  Level FlightAware ADS-B
11:42PM 41.5171 -91.4885 327° Northwest 401 461 36,000  Level FlightAware ADS-B
11:42PM 41.5836 -91.5455 327° Northwest 401 461 36,000  Level FlightAware ADS-B
11:43PM 41.6313 -91.5865 327° Northwest 399 459 36,000  Level FlightAware ADS-B
11:44PM 41.6972 -91.6432 327° Northwest 397 457 36,000  Level FlightAware ADS-B
11:44PM 41.7674 -91.7036 327° Northwest 396 456 36,000  Level FlightAware ADS-B
11:45PM 41.8325 -91.7597 327° Northwest 394 453 36,000  Level FlightAware ADS-B
11:46PM 41.8794 -91.8006 327° Northwest 393 452 36,000  Level FlightAware ADS-B
11:46PM 41.9269 -91.8418 327° Northwest 391 450 36,000  Level FlightAware ADS-B
11:47PM 41.9733 -91.8819 327° Northwest 391 450 36,000  Level FlightAware ADS-B
11:47PM 42.0417 -91.9264 342° North 400 460 36,000  Level FlightAware ADS-B
11:48PM 42.0948 -91.9498 342° North 400 460 36,000  Level FlightAware ADS-B
11:49PM 42.1665 -91.9815 342° North 400 460 36,000  Level FlightAware ADS-B
11:49PM 42.2232 -92.0066 342° North 401 461 36,000  Level FlightAware ADS-B
11:50PM 42.2992 -92.0406 342° North 401 461 36,000  Level FlightAware ADS-B
11:50PM 42.3519 -92.0639 342° North 401 461 36,000  Level FlightAware ADS-B
11:51PM 42.4285 -92.0983 342° North 401 461 36,000  Level FlightAware ADS-B
11:51PM 42.4700 -92.1168 342° North 401 461 36,000  Level FlightAware ADS-B (KSGS)
11:52PM 42.5054 -92.1326 342° North 401 461 36,000  Level FlightAware ADS-B
11:52PM 42.5159 -92.1372 342° North 401 461 36,000  Level FlightAware ADS-B (KSGS)
11:52PM 42.5775 -92.1648 342° North 401 461 36,000  Level FlightAware ADS-B (KSGS)
11:53PM 42.5871 -92.1691 342° North 400 460 36,000  Level FlightAware ADS-B
11:53PM 42.6118 -92.1802 342° North 400 460 36,000  Level FlightAware ADS-B (KSGS)
11:53PM 42.6820 -92.2116 342° North 399 459 36,000  Level FlightAware ADS-B (KSGS)
11:54PM 42.6927 -92.2164 342° North 399 459 36,000  Level FlightAware ADS-B
11:54PM 42.7260 -92.2315 342° North 398 458 36,000  Level FlightAware ADS-B (KSGS)
11:54PM 42.7847 -92.2579 342° North 397 457 36,000  Level FlightAware ADS-B (KSGS)
11:55PM 42.8400 -92.2826 342° North 394 453 36,000  Level FlightAware ADS-B (KSGS)
11:55PM 42.8893 -92.3048 342° North 393 452 36,000  Level FlightAware ADS-B (KSGS)
11:56PM 42.9153 -92.3166 342° North 392 451 36,000  Level FlightAware ADS-B
11:56PM 42.9412 -92.3282 342° North 390 449 36,000  Level FlightAware ADS-B (KSGS)
11:56PM 42.9714 -92.3419 342° North 390 449 36,000  Level FlightAware ADS-B
11:56PM 42.9933 -92.3518 342° North 388 447 36,000  Level FlightAware ADS-B (KSGS)
11:57PM 43.0446 -92.3751 342° North 388 447 36,000  Level FlightAware ADS-B (KSGS)
11:57PM 43.0969 -92.3986 342° North 387 445 36,000  Level FlightAware ADS-B (KSGS)
11:58PM 43.1466 -92.4213 342° North 387 445 36,000  Level FlightAware ADS-B (KSGS)
11:58PM 43.1989 -92.4450 342° North 386 444 36,000  Level FlightAware ADS-B (KSGS)
11:59PM 43.2480 -92.4671 342° North 385 443 36,000  Level FlightAware ADS-B (KSGS)
12:01AM 43.5015 -92.5825 342° North 384 442 36,000  Level FlightAware ADS-B (KSGS)
12:02AM 43.5531 -92.6059 342° North 382 440 36,000 -474 Level FlightAware ADS-B (KSGS)
12:02AM 43.5606 -92.6093 342° North 380 437 35,700 -2,400 Descending FlightAware ADS-B (ESMS / MMX)
12:02AM 43.6028 -92.6285 342° North 379 436 34,800 -2,651 Descending FlightAware ADS-B (KSGS)
12:03AM 43.6203 -92.6366 341° North 379 436 33,800 -3,200 Descending FlightAware ADS-B (ESMS / MMX)
12:03AM 43.6528 -92.6517 342° North 380 437 33,200 -3,538 Descending FlightAware ADS-B (KSGS)
12:03AM 43.7036 -92.6745 342° North 382 440 31,500 -3,484 Descending FlightAware ADS-B (KSGS)
12:03AM 43.6909 -92.6688 342° North 382 440 31,400 -2,897 Descending FlightAware ADS-B (ESMS / MMX)
12:04AM 43.7524 -92.6966 342° North 377 434 30,100 -2,850 Descending FlightAware ADS-B (KSGS)
12:04AM 43.7713 -92.7053 342° North 375 432 29,500 -2,625 Descending FlightAware ADS-B (ESMS / MMX)
12:04AM 43.8033 -92.7200 342° North 369 425 28,700 -3,000 Descending FlightAware ADS-B (KSGS)
12:05AM 43.8243 -92.7296 342° North 370 426 27,900 -2,483 Descending FlightAware ADS-B (ESMS / MMX)
12:05AM 43.8502 -92.7413 342° North 362 417 27,500 -2,043 Descending FlightAware ADS-B (KSGS)
12:05AM 43.8986 -92.7638 342° North 357 411 26,300 -2,500 Descending FlightAware ADS-B (KSGS)
12:06AM 43.9454 -92.7850 342° North 358 412 25,000 -2,509 Descending FlightAware ADS-B (KSGS)
12:06AM 43.9848 -92.8029 342° North 355 409 24,000 -2,200 Descending FlightAware ADS-B (ESMS / MMX)
12:06AM 43.9913 -92.8059 342° North 355 409 23,900 -2,400 Descending FlightAware ADS-B (KSGS)
12:07AM 44.0387 -92.8271 342° North 349 402 22,600 -2,462 Descending FlightAware ADS-B (KSGS)
12:07AM 44.0431 -92.8292 341° North 349 402 22,300 -2,276 Descending FlightAware ADS-B (ESMS / MMX)
12:07AM 44.0837 -92.8482 342° North 347 399 21,500 -2,341 Descending FlightAware ADS-B (KSGS)
12:08AM 44.0994 -92.8555 342° North 346 398 20,700 -2,323 Descending FlightAware ADS-B (ESMS / MMX)
12:08AM 44.1303 -92.8695 342° North 344 396 20,300 -2,400 Descending FlightAware ADS-B (KSGS)
12:08AM 44.1763 -92.8904 342° North 346 398 19,100 -2,400 Descending FlightAware ADS-B (KSGS)
12:09AM 44.2067 -92.9043 342° North 345 397 18,300 -2,427 Descending FlightAware ADS-B (ESMS / MMX)
12:10AM 44.3104 -92.9516 342° North 341 392 15,500 -2,340 Descending FlightAware ADS-B (KSGS)
12:10AM 44.3535 -92.9782 324° Northwest 332 382 14,400 -2,459 Descending FlightAware ADS-B (KSGS)
12:11AM 44.3908 -93.0163 324° Northwest 335 386 13,000 -2,706 Descending FlightAware ADS-B (KSGS)
12:11AM 44.4174 -93.0439 324° Northwest 333 383 12,100 -2,276 Descending FlightAware ADS-B (ESMS / MMX)
12:11AM 44.4263 -93.0530 325° Northwest 331 381 11,900 -2,154 Descending FlightAware ADS-B (KSGS)
12:12AM 44.4659 -93.0927 325° Northwest 324 373 10,700 -1,869 Descending FlightAware ADS-B (KSGS)
12:12AM 44.5013 -93.1280 325° Northwest 309 356 10,000 -960 Descending FlightAware ADS-B (KSGS)
12:13AM 44.5229 -93.1495 325° Northwest 288 331 9,900 -150 Descending FlightAware ADS-B (KSGS)
12:13AM 44.5449 -93.1711 325° Northwest 277 319 9,900  Level FlightAware ADS-B (KSGS)
12:13AM 44.5459 -93.1722 325° Northwest 277 319 9,900 286 Level FlightAware ADS-B (ESMS / MMX)
12:13AM 44.5671 -93.1929 325° Northwest 274 315 10,000 -176 Climbing FlightAware ADS-B (ESMS / MMX)
12:14AM 44.5821 -93.2060 334° Northwest 276 318 9,800 -1,448 Descending FlightAware ADS-B (KSGS)
12:14AM 44.5995 -93.2171 336° Northwest 280 322 9,300 -1,862 Descending FlightAware ADS-B (KSGS)
12:14AM 44.6158 -93.2274 336° Northwest 276 318 8,900 -2,000 Descending FlightAware ADS-B (KSGS)
12:14AM 44.6352 -93.2394 337° Northwest 276 318 8,300 -1,935 Descending FlightAware ADS-B (KSGS)
12:15AM 44.6526 -93.2501 337° Northwest 273 314 7,900 -1,800 Descending FlightAware ADS-B (KSGS)
12:15AM 44.6549 -93.2516 336° Northwest 272 313 7,700 -2,000 Descending FlightAware ADS-B (ESMS / MMX)
12:15AM 44.6695 -93.2609 336° Northwest 269 310 7,400 -2,000 Descending FlightAware ADS-B (KSGS)
12:15AM 44.6819 -93.2688 336° Northwest 270 311 7,000 -2,143 Descending FlightAware ADS-B (ESMS / MMX)
12:15AM 44.6859 -93.2712 337° Northwest 272 313 6,900 -2,333 Descending FlightAware ADS-B (KSGS)
12:15AM 44.7030 -93.2816 337° Northwest 278 320 6,300 -2,471 Descending FlightAware ADS-B (KSGS)
12:15AM 44.6972 -93.2781 336° Northwest 279 321 6,200 -1,875 Descending FlightAware ADS-B (ESMS / MMX)
12:16AM 44.7220 -93.2935 336° Northwest 280 322 5,800 -1,579 Descending FlightAware ADS-B (KSGS)
12:16AM 44.7263 -93.2964 335° Northwest 277 319 5,700 -632 Descending FlightAware ADS-B (ESMS / MMX)
12:16AM 44.7441 -93.3078 336° Northwest 266 306 5,600 -286 Descending FlightAware ADS-B (KSGS)
12:16AM 44.7509 -93.3122 335° Northwest 262 302 5,600 -375 Level FlightAware ADS-B (ESMS / MMX)
12:16AM 44.7612 -93.3189 336° Northwest 255 293 5,500 -600 Descending FlightAware ADS-B (KSGS)
12:16AM 44.7729 -93.3264 335° Northwest 249 287 5,400 -600 Descending FlightAware ADS-B (ESMS / MMX)
12:17AM 44.7823 -93.3325 336° Northwest 243 280 5,300 -900 Descending FlightAware ADS-B (KSGS)
12:17AM 44.7924 -93.3390 336° Northwest 245 282 5,100 -1,200 Descending FlightAware ADS-B (ESMS / MMX)
12:17AM 44.7978 -93.3425 336° Northwest 244 281 5,000 -1,000 Descending FlightAware ADS-B (KSGS)
12:17AM 44.8122 -93.3514 337° Northwest 242 278 4,800 -1,000 Descending FlightAware ADS-B (KSGS)
12:17AM 44.8288 -93.3617 337° Northwest 242 278 4,500 -1,143 Descending FlightAware ADS-B (KSGS)
12:17AM 44.8331 -93.3642 336° Northwest 243 280 4,400 -800 Descending FlightAware ADS-B (ESMS / MMX)
12:18AM 44.8436 -93.3702 343° North 241 277 4,300 -800 Descending FlightAware ADS-B (KSGS)
12:18AM 44.8494 -93.3721 351° North 242 278 4,200 -1,636 Descending FlightAware ADS-B (KSGS)
12:18AM 44.8556 -93.3731 355° North 243 280 4,000 -1,200 Descending FlightAware ADS-B (ESMS / MMX)
12:18AM 44.8661 -93.3742 357° North 238 274 3,900 -632 Descending FlightAware ADS-B (KSGS)
12:18AM 44.8726 -93.3749 354° North 229 264 3,800 -800 Descending FlightAware ADS-B (ESMS / MMX)
12:18AM 44.8829 -93.3764 353° North 224 258 3,700 -600 Descending FlightAware ADS-B (KSGS)
12:18AM 44.8971 -93.3795 350° North 214 246 3,600 -300 Descending FlightAware ADS-B (ESMS / MMX)
12:19AM 44.9025 -93.3809 351° North 217 250 3,600 -286 Level FlightAware ADS-B (KSGS)
12:19AM 44.9136 -93.3841 348° North 201 231 3,500 -632 Descending FlightAware ADS-B (ESMS / MMX)
12:19AM 44.9202 -93.3861 349° North 198 228 3,400 -1,000 Descending FlightAware ADS-B (KSGS)
12:19AM 44.9336 -93.3900 349° North 194 223 3,200 -600 Descending FlightAware ADS-B (KSGS)
12:19AM 44.9373 -93.3907 355° North 194 223 3,200 -1,091 Level FlightAware ADS-B (KSGS)
12:19AM 44.9428 -93.3905 11° North 196 226 3,000 -1,091 Descending FlightAware ADS-B (KSGS)
12:19AM 44.9471 -93.3886 25° Northeast 195 224 3,000  Level FlightAware ADS-B (KSGS)
12:19AM 44.9514 -93.3845 43° Northeast 194 223 3,000  Level FlightAware ADS-B (ESMS / MMX)
12:20AM 44.9534 -93.3812 55° Northeast 192 221 3,000  Level FlightAware ADS-B (KSGS)
12:20AM 44.9555 -93.3755 71° East 188 216 3,000  Level FlightAware ADS-B (KSGS)
12:20AM 44.9562 -93.3682 92° East 184 212 3,000  Level FlightAware ADS-B (KSGS)
12:20AM 44.9557 -93.3624 101° East 179 206 3,000  Level FlightAware ADS-B (KSGS)
12:20AM 44.9531 -93.3455 102° East 166 191 3,000  Level FlightAware ADS-B (KSGS)
12:20AM 44.9528 -93.3440 109° East 161 185 3,000 -600 Level FlightAware ADS-B (ESMS / MMX)
12:20AM 44.9506 -93.3359 120° Southeast 151 174 2,900 -667 Descending FlightAware ADS-B (KSGS)
12:20AM 44.9490 -93.3326 125° Southeast 147 169 2,900  Level FlightAware ADS-B (KSGS)
12:20AM 44.9459 -93.3263 122° Southeast 146 168 2,900 -429 Level FlightAware ADS-B (ESMS / MMX)
12:21AM 44.9435 -93.3208 121° Southeast 146 168 2,800 -1,200 Descending FlightAware ADS-B (KSGS)
12:21AM 44.9378 -93.3073 118° Southeast 145 167 2,500 -1,000 Descending FlightAware ADS-B (KSGS)
12:21AM 44.9337 -93.2954 115° Southeast 142 163 2,300 -900 Descending FlightAware ADS-B (KSGS)
12:21AM 44.9337 -93.2958 116° Southeast 141 162 2,200 -720 Descending FlightAware ADS-B (ESMS / MMX)
12:21AM 44.9265 -93.2751 117° Southeast 140 161 2,000 -706 Descending FlightAware ADS-B (KSGS)
12:22AM 44.9227 -93.2648 119° Southeast 141 162 1,800 -774 Descending FlightAware ADS-B (KSGS)
12:22AM 44.9169 -93.2505 120° Southeast 143 165 1,600 -581 Descending FlightAware ADS-B (KSGS)
12:22AM 44.9117 -93.2379 119° Southeast 146 168 1,500 -800 Descending FlightAware ADS-B (KSGS)
12:22AM 44.9067 -93.2257 119° Southeast 149 171 1,200 -1,000 Descending FlightAware ADS-B (KSGS)
12:23AM 44.9016 -93.2132 120° Southeast 148 170 1,000 -643 Descending FlightAware ADS-B (KSGS)
12:23AM 44.8975 -93.2032 119° Southeast 146 168 900 -462 Descending FlightAware ADS-B (KSGS)
12:30AM 44.8820 -93.2218 106° East  Level Estimated
12:31AM 44.8820 -93.2218 167° South  Level Estimated

Login

Don't have an account? Register now (free) for customized features, flight alerts, and more!